createdAt,value
2018-06-12T00:01:57.272Z,65.80
2018-06-12T00:04:27.012Z,65.80
2018-06-12T00:06:56.795Z,65.80
2018-06-12T00:09:26.432Z,66.30
2018-06-12T00:11:56.154Z,66.40
2018-06-12T00:14:25.814Z,66.60
2018-06-12T00:16:55.561Z,66.80
2018-06-12T00:19:25.529Z,66.80
2018-06-12T00:21:55.197Z,66.70
2018-06-12T00:24:25.158Z,66.90
2018-06-12T00:26:54.808Z,66.90
2018-06-12T00:29:24.508Z,66.80
2018-06-12T00:31:54.417Z,66.60
2018-06-12T00:34:24.293Z,66.60
2018-06-12T00:36:54.125Z,66.40
2018-06-12T00:39:23.779Z,65.50
2018-06-12T00:41:53.540Z,65.20
2018-06-12T00:44:23.292Z,65.30
2018-06-12T00:46:53.036Z,63.90
2018-06-12T00:49:22.769Z,63.80
2018-06-12T00:51:52.426Z,63.80
2018-06-12T00:54:22.188Z,63.80
2018-06-12T00:57:02.705Z,64.00
2018-06-12T00:59:32.481Z,64.10
2018-06-12T01:02:02.117Z,63.80
2018-06-12T01:04:31.832Z,63.50
2018-06-12T01:07:01.488Z,63.40
2018-06-12T01:09:31.174Z,62.10
2018-06-12T01:12:00.943Z,62.00
2018-06-12T01:14:30.669Z,62.10
2018-06-12T01:17:00.384Z,61.20
2018-06-12T01:19:30.150Z,61.80
2018-06-12T01:21:59.972Z,61.50
2018-06-12T01:24:29.633Z,61.50
2018-06-12T01:26:59.413Z,61.70
2018-06-12T01:29:29.012Z,61.90
2018-06-12T01:31:58.797Z,61.80
2018-06-12T01:34:28.445Z,62.00
2018-06-12T01:36:58.136Z,61.80
2018-06-12T01:39:27.771Z,61.80
2018-06-12T01:41:57.483Z,62.10
2018-06-12T01:44:27.248Z,62.40
2018-06-12T01:46:57.000Z,62.50
2018-06-12T01:49:26.685Z,62.60
2018-06-12T01:51:56.273Z,62.60
2018-06-12T01:54:25.826Z,63.10
2018-06-12T01:56:55.508Z,62.90
2018-06-12T01:59:25.193Z,63.20
2018-06-12T02:01:54.841Z,63.00
2018-06-12T02:04:24.425Z,62.80
2018-06-12T02:06:54.061Z,62.60
2018-06-12T02:09:23.756Z,62.90
2018-06-12T02:11:53.538Z,63.00
2018-06-12T02:14:23.201Z,62.90
2018-06-12T02:16:52.892Z,62.70
2018-06-12T02:19:22.617Z,62.70
2018-06-12T02:21:52.437Z,62.50
2018-06-12T02:24:22.196Z,62.80
2018-06-12T02:26:51.840Z,62.80
2018-06-12T02:29:21.601Z,62.50
2018-06-12T02:31:51.272Z,62.20
2018-06-12T02:34:20.940Z,61.50
2018-06-12T02:36:50.638Z,61.00
2018-06-12T02:39:20.359Z,60.70
2018-06-12T02:41:50.049Z,60.30
2018-06-12T02:46:48.900Z,59.90
2018-06-12T02:49:18.598Z,59.40
2018-06-12T02:51:48.300Z,59.70
2018-06-12T02:54:17.948Z,60.10
2018-06-12T02:56:47.693Z,59.60
2018-06-12T02:59:17.348Z,59.70
2018-06-12T03:01:47.117Z,60.20
2018-06-12T03:04:16.775Z,60.10
2018-06-12T03:06:46.453Z,60.10
2018-06-12T03:09:16.199Z,60.10
2018-06-12T03:11:45.896Z,60.20
2018-06-12T03:14:15.669Z,60.40
2018-06-12T03:16:45.431Z,60.30
2018-06-12T03:19:15.225Z,60.80
2018-06-12T03:21:44.952Z,60.00
2018-06-12T03:24:14.814Z,60.30
2018-06-12T03:26:44.521Z,60.00
2018-06-12T03:29:14.288Z,60.60
2018-06-12T03:31:44.048Z,60.20
2018-06-12T03:34:13.928Z,60.40
2018-06-12T03:36:43.990Z,60.40
2018-06-12T03:39:13.853Z,60.60
2018-06-12T03:41:43.600Z,61.00
2018-06-12T03:44:13.356Z,60.90
2018-06-12T03:46:43.129Z,61.30
2018-06-12T03:49:12.776Z,61.80
2018-06-12T03:51:42.497Z,61.60
2018-06-12T03:54:12.256Z,61.60
2018-06-12T03:56:41.911Z,61.20
2018-06-12T03:59:11.584Z,61.20
2018-06-12T04:01:41.212Z,61.90
2018-06-12T04:04:10.855Z,61.50
2018-06-12T04:06:40.697Z,61.60
2018-06-12T04:09:10.355Z,62.40
2018-06-12T04:11:39.927Z,61.60
2018-06-12T04:14:09.621Z,61.80
2018-06-12T04:16:39.260Z,61.60
2018-06-12T04:19:09.020Z,61.20
2018-06-12T04:21:38.692Z,61.40
2018-06-12T04:24:08.389Z,61.60
2018-06-12T04:26:37.899Z,61.60
2018-06-12T04:29:07.516Z,61.90
2018-06-12T04:31:37.229Z,63.10
2018-06-12T04:34:06.998Z,62.10
2018-06-12T04:36:36.645Z,62.00
2018-06-12T04:39:07.798Z,62.40
2018-06-12T04:41:37.603Z,62.60
2018-06-12T04:44:07.312Z,62.70
2018-06-12T04:46:37.000Z,62.60
2018-06-12T04:49:06.632Z,63.00
2018-06-12T04:51:36.384Z,62.70
2018-06-12T04:54:06.153Z,62.50
2018-06-12T04:56:35.744Z,63.70
2018-06-12T04:59:05.633Z,62.70
2018-06-12T05:01:35.376Z,62.70
2018-06-12T05:04:05.090Z,62.80
2018-06-12T05:06:34.806Z,62.70
2018-06-12T05:09:05.743Z,62.80
2018-06-12T05:11:35.537Z,62.70
2018-06-12T05:14:16.260Z,63.40
2018-06-12T05:16:46.852Z,62.50
2018-06-12T05:19:16.434Z,63.00
2018-06-12T05:21:46.171Z,62.90
2018-06-12T05:24:15.857Z,62.90
2018-06-12T05:26:46.296Z,62.90
2018-06-12T05:29:15.973Z,63.10
2018-06-12T05:31:45.834Z,62.40
2018-06-12T05:34:15.643Z,61.90
2018-06-12T05:36:45.452Z,62.00
2018-06-12T05:39:15.161Z,62.10
2018-06-12T05:41:45.033Z,61.90
2018-06-12T05:44:14.689Z,61.50
2018-06-12T05:46:44.429Z,61.10
2018-06-12T05:49:13.959Z,61.00
2018-06-12T05:51:43.586Z,61.20
2018-06-12T05:54:13.249Z,61.20
2018-06-12T05:56:42.932Z,61.10
2018-06-12T05:59:12.621Z,61.30
2018-06-12T06:01:42.408Z,60.90
2018-06-12T06:04:12.063Z,60.90
2018-06-12T06:06:41.847Z,61.10
2018-06-12T06:09:11.433Z,60.60
2018-06-12T06:11:41.094Z,60.00
2018-06-12T06:14:10.861Z,60.10
2018-06-12T06:16:40.598Z,59.30
2018-06-12T06:19:10.403Z,59.10
2018-06-12T06:21:40.024Z,59.10
2018-06-12T06:24:09.718Z,58.80
2018-06-12T06:26:39.421Z,58.60
2018-06-12T06:29:09.051Z,58.90
2018-06-12T06:31:38.682Z,58.30
2018-06-12T06:34:08.118Z,58.40
2018-06-12T06:36:37.553Z,58.20
2018-06-12T06:39:08.308Z,56.60
2018-06-12T06:41:38.238Z,56.90
2018-06-12T06:44:07.644Z,56.70
2018-06-12T06:46:37.095Z,56.30
2018-06-12T06:49:06.986Z,53.40
2018-06-12T06:54:05.901Z,46.40
2018-06-12T06:56:35.553Z,43.40
2018-06-12T06:59:05.346Z,40.30
2018-06-12T07:01:35.132Z,38.10
2018-06-12T07:04:04.773Z,36.60
2018-06-12T07:06:34.557Z,34.50
2018-06-12T07:09:04.755Z,33.70
2018-06-12T07:11:34.417Z,32.50
2018-06-12T07:14:04.165Z,32.20
2018-06-12T07:16:34.005Z,31.40
2018-06-12T07:19:03.844Z,31.10
2018-06-12T07:21:33.530Z,31.90
2018-06-12T07:24:03.281Z,31.30
2018-06-12T07:26:32.973Z,29.60
2018-06-12T07:29:02.756Z,29.80
2018-06-12T07:34:01.826Z,28.70
2018-06-12T07:36:31.511Z,28.60
2018-06-12T07:39:01.347Z,28.40
2018-06-12T07:41:31.105Z,28.00
2018-06-12T07:44:00.762Z,28.10
2018-06-12T07:46:30.441Z,27.70
2018-06-12T07:49:00.137Z,28.40
2018-06-12T07:51:29.779Z,27.90
2018-06-12T07:53:59.549Z,28.40
2018-06-12T07:56:29.407Z,27.40
2018-06-12T07:58:59.172Z,28.00
2018-06-12T08:01:29.912Z,27.90
2018-06-12T08:03:59.669Z,27.60
2018-06-12T08:06:29.435Z,28.00
2018-06-12T08:08:59.198Z,27.60
2018-06-12T08:11:28.861Z,27.40
2018-06-12T08:13:58.566Z,27.60
2018-06-12T08:16:28.121Z,28.10
2018-06-12T08:18:57.881Z,27.80
2018-06-12T08:21:27.638Z,27.10
2018-06-12T08:23:57.469Z,27.90
2018-06-12T08:26:27.221Z,27.30
2018-06-12T08:28:56.865Z,26.80
2018-06-12T08:31:26.739Z,28.10
2018-06-12T08:33:56.494Z,29.20
2018-06-12T08:36:26.295Z,31.20
2018-06-12T08:38:55.913Z,30.00
2018-06-12T08:41:25.595Z,29.60
2018-06-12T08:43:55.285Z,29.00
2018-06-12T08:46:24.990Z,29.80
2018-06-12T08:48:54.760Z,28.80
2018-06-12T08:51:24.468Z,28.70
2018-06-12T08:53:54.179Z,28.00
2018-06-12T08:56:23.976Z,27.70
2018-06-12T08:58:53.579Z,28.60
2018-06-12T09:01:23.384Z,29.90
2018-06-12T09:03:53.006Z,30.00
2018-06-12T09:06:22.624Z,31.50
2018-06-12T09:08:52.386Z,32.00
2018-06-12T09:11:22.033Z,33.30
2018-06-12T09:13:51.832Z,31.80
2018-06-12T09:16:21.512Z,32.10
2018-06-12T09:18:51.140Z,33.50
2018-06-12T09:21:20.932Z,33.00
2018-06-12T09:23:50.690Z,31.70
2018-06-12T09:26:20.456Z,29.70
2018-06-12T09:31:19.205Z,29.00
2018-06-12T09:33:49.168Z,28.60
2018-06-12T09:36:23.861Z,28.00
2018-06-12T09:38:53.757Z,28.20
2018-06-12T09:41:23.369Z,27.00
2018-06-12T09:43:53.236Z,28.20
2018-06-12T09:46:22.880Z,27.90
2018-06-12T09:48:52.469Z,28.20
2018-06-12T09:51:22.208Z,28.30
2018-06-12T09:53:51.887Z,27.40
2018-06-12T09:56:21.675Z,28.00
2018-06-12T09:58:51.438Z,29.50
2018-06-12T10:01:21.833Z,29.30
2018-06-12T10:03:53.224Z,29.20
2018-06-12T10:06:22.921Z,28.60
2018-06-12T10:08:52.636Z,29.50
2018-06-12T10:11:22.492Z,29.20
2018-06-12T10:13:52.256Z,29.40
2018-06-12T10:16:22.123Z,28.40
2018-06-12T10:18:51.831Z,28.50
2018-06-12T10:21:21.548Z,28.90
2018-06-12T10:23:51.103Z,30.00
2018-06-12T10:26:20.888Z,29.90
2018-06-12T10:28:50.673Z,29.50
2018-06-12T10:31:20.535Z,29.40
2018-06-12T10:33:50.398Z,30.20
2018-06-12T10:36:20.158Z,32.00
2018-06-12T10:38:49.840Z,32.60
2018-06-12T10:41:19.638Z,33.60
2018-06-12T10:46:18.273Z,35.30
2018-06-12T10:48:48.154Z,35.20
2018-06-12T10:53:46.804Z,35.80
2018-06-12T10:56:16.592Z,35.90
2018-06-12T10:58:46.271Z,36.10
2018-06-12T11:03:44.921Z,36.50
2018-06-12T11:06:14.636Z,37.60
2018-06-12T11:08:44.395Z,37.10
2018-06-12T11:11:13.948Z,37.50
2018-06-12T11:13:43.724Z,39.00
2018-06-12T11:16:13.503Z,37.90
2018-06-12T11:18:43.157Z,37.60
2018-06-12T11:21:12.737Z,38.30
2018-06-12T11:23:42.485Z,39.20
2018-06-12T11:26:12.252Z,40.10
2018-06-12T11:31:11.188Z,42.40
2018-06-12T11:33:40.849Z,42.50
2018-06-12T11:36:10.528Z,43.40
2018-06-12T11:38:40.278Z,44.50
2018-06-12T11:41:09.933Z,45.20
2018-06-12T11:43:39.656Z,45.50
2018-06-12T11:46:09.445Z,46.20
2018-06-12T11:48:39.036Z,45.80
2018-06-12T11:51:08.690Z,45.30
2018-06-12T11:53:38.552Z,46.50
2018-06-12T11:56:08.315Z,47.30
2018-06-12T11:58:38.084Z,47.40
2018-06-12T12:01:07.847Z,47.10
2018-06-12T12:03:37.579Z,47.50
2018-06-12T12:06:07.408Z,48.20
2018-06-12T12:11:06.244Z,49.80
2018-06-12T12:13:35.925Z,49.10
2018-06-12T12:16:05.685Z,49.10
2018-06-12T12:18:35.448Z,49.10
2018-06-12T12:21:05.215Z,50.30
2018-06-12T12:23:35.117Z,50.50
2018-06-12T12:26:05.028Z,50.40
2018-06-12T12:28:34.727Z,50.50
2018-06-12T12:31:04.575Z,51.60
2018-06-12T12:33:34.344Z,51.60
2018-06-12T12:36:04.281Z,51.60
2018-06-12T12:38:34.077Z,52.50
2018-06-12T12:41:03.692Z,52.80
2018-06-12T12:43:33.345Z,53.00
2018-06-12T12:46:03.184Z,53.30
2018-06-12T12:48:32.942Z,53.20
2018-06-12T12:51:02.684Z,53.60
2018-06-12T12:53:32.304Z,54.00
2018-06-12T12:56:01.971Z,54.00
2018-06-12T12:58:31.724Z,54.20
2018-06-12T13:01:01.381Z,54.40
2018-06-12T13:03:31.254Z,54.60
2018-06-12T13:06:01.005Z,53.70
2018-06-12T13:08:30.913Z,54.70
2018-06-12T13:11:00.633Z,55.30
2018-06-12T13:13:30.428Z,54.70
2018-06-12T13:16:00.186Z,55.40
2018-06-12T13:18:29.826Z,54.40
2018-06-12T13:20:59.524Z,54.20
2018-06-12T13:25:58.277Z,55.30
2018-06-12T13:28:28.041Z,55.20
2018-06-12T13:30:57.798Z,56.30
2018-06-12T13:33:27.675Z,56.30
2018-06-12T13:35:57.314Z,57.10
2018-06-12T13:38:27.096Z,58.10
2018-06-12T13:40:56.736Z,58.70
2018-06-12T13:43:26.424Z,59.20
2018-06-12T13:45:56.118Z,57.50
2018-06-12T13:50:54.860Z,56.80
2018-06-12T13:53:24.448Z,57.70
2018-06-12T13:55:54.079Z,58.90
2018-06-12T13:58:23.797Z,58.90
2018-06-12T14:00:53.545Z,59.00
2018-06-12T14:03:23.204Z,58.90
2018-06-12T14:05:52.896Z,59.30
2018-06-12T14:08:22.576Z,59.20
2018-06-12T14:10:52.345Z,60.40
2018-06-12T14:13:22.246Z,60.50
2018-06-12T14:15:51.963Z,60.20
2018-06-12T14:18:21.541Z,60.10
2018-06-12T14:20:51.230Z,61.60
2018-06-12T14:23:20.975Z,62.00
2018-06-12T14:25:50.855Z,62.90
2018-06-12T14:28:20.598Z,62.50
2018-06-12T14:30:50.312Z,62.20
2018-06-12T14:33:20.028Z,62.60
2018-06-12T14:35:49.512Z,63.70
2018-06-12T14:38:19.192Z,64.60
2018-06-12T14:40:48.955Z,68.30
2018-06-12T14:43:18.725Z,67.30
2018-06-12T14:45:48.161Z,70.90
2018-06-12T14:48:17.853Z,72.30
2018-06-12T14:50:47.548Z,72.70
2018-06-12T14:53:17.301Z,75.40
2018-06-12T14:55:47.044Z,77.60
2018-06-12T14:58:16.716Z,76.90
2018-06-12T15:00:46.509Z,76.10
2018-06-12T15:03:16.237Z,75.60
2018-06-12T15:05:46.251Z,73.50
2018-06-12T15:08:15.965Z,74.00
2018-06-12T15:10:45.924Z,77.20
2018-06-12T15:13:15.580Z,75.00
2018-06-12T15:15:45.277Z,75.40
2018-06-12T15:18:14.860Z,76.10
2018-06-12T15:20:44.611Z,75.90
2018-06-12T15:23:14.389Z,76.10
2018-06-12T15:25:44.132Z,76.90
2018-06-12T15:28:13.757Z,79.30
2018-06-12T15:30:43.437Z,79.50
2018-06-12T15:33:13.063Z,78.90
2018-06-12T15:35:42.861Z,79.50
2018-06-12T15:38:12.486Z,79.60
2018-06-12T15:40:42.089Z,80.80
2018-06-12T15:43:11.979Z,80.20
2018-06-12T15:45:41.728Z,80.80
2018-06-12T15:48:11.581Z,81.40
2018-06-12T15:50:41.325Z,82.20
2018-06-12T15:53:10.713Z,82.70
2018-06-12T15:55:40.095Z,82.40
2018-06-12T15:58:09.651Z,82.90
2018-06-12T16:00:39.172Z,82.40
2018-06-12T16:03:09.624Z,83.70
2018-06-12T16:05:39.438Z,84.30
2018-06-12T16:08:09.946Z,82.50
2018-06-12T16:10:40.821Z,82.80
2018-06-12T16:13:11.493Z,82.70
2018-06-12T16:15:42.888Z,84.40
2018-06-12T16:18:12.460Z,83.10
2018-06-12T16:20:42.016Z,82.40
2018-06-12T16:23:13.401Z,83.50
2018-06-12T16:25:43.226Z,83.00
2018-06-12T16:28:13.316Z,82.00
2018-06-12T16:30:42.764Z,81.60
2018-06-12T16:33:15.484Z,81.10
2018-06-12T16:35:45.293Z,81.20
2018-06-12T16:38:15.024Z,80.80
2018-06-12T16:40:44.397Z,81.00
2018-06-12T16:43:13.833Z,81.20
2018-06-12T16:45:43.206Z,81.00
2018-06-12T16:48:12.565Z,81.40
2018-06-12T16:50:41.936Z,81.80
2018-06-12T16:53:11.369Z,81.70
2018-06-12T16:55:40.769Z,80.40
2018-06-12T16:58:10.284Z,81.90
2018-06-12T17:00:39.678Z,81.60
2018-06-12T17:03:09.068Z,81.40
2018-06-12T17:05:38.508Z,81.50
2018-06-12T17:08:08.292Z,79.70
2018-06-12T17:10:37.756Z,81.00
2018-06-12T17:13:07.621Z,81.60
2018-06-12T17:15:37.013Z,80.70
2018-06-12T17:18:06.830Z,82.10
2018-06-12T17:20:36.205Z,82.90
2018-06-12T17:23:05.633Z,83.80
2018-06-12T17:25:35.297Z,84.60
2018-06-12T17:28:05.485Z,84.40
2018-06-12T17:30:34.884Z,85.50
2018-06-12T17:35:33.107Z,83.60
2018-06-12T17:38:02.605Z,83.90
2018-06-12T17:40:31.971Z,85.10
2018-06-12T17:43:01.373Z,85.10
2018-06-12T17:45:30.753Z,86.20
2018-06-12T17:48:00.144Z,85.10
2018-06-12T17:50:29.538Z,86.20
2018-06-12T17:52:58.946Z,84.50
2018-06-12T17:55:28.673Z,85.10
2018-06-12T17:57:58.068Z,84.30
2018-06-12T18:00:27.424Z,83.90
2018-06-12T18:02:56.828Z,82.20
2018-06-12T18:05:26.214Z,83.10
2018-06-12T18:07:55.589Z,85.70
2018-06-12T18:10:24.977Z,85.60
2018-06-12T18:12:54.375Z,85.20
2018-06-12T18:15:23.748Z,84.30
2018-06-12T18:17:53.161Z,84.90
2018-06-12T18:20:22.753Z,87.60
2018-06-12T18:22:52.164Z,88.20
2018-06-12T18:25:21.548Z,86.70
2018-06-12T18:27:51.272Z,87.10
2018-06-12T18:30:21.025Z,88.70
2018-06-12T18:32:50.908Z,90.10
2018-06-12T18:35:26.194Z,88.50
2018-06-12T18:37:55.784Z,90.00
2018-06-12T18:40:32.281Z,89.30
2018-06-12T18:43:09.157Z,89.40
2018-06-12T18:45:45.092Z,89.70
2018-06-12T18:48:14.884Z,90.30
2018-06-12T18:50:44.556Z,90.20
2018-06-12T18:53:14.293Z,90.60
2018-06-12T18:55:44.048Z,90.60
2018-06-12T18:58:13.724Z,90.60
2018-06-12T19:00:43.409Z,90.90
2018-06-12T19:03:13.144Z,90.80
2018-06-12T19:05:43.027Z,90.80
2018-06-12T19:08:12.697Z,90.50
2018-06-12T19:10:42.305Z,90.60
2018-06-12T19:13:12.071Z,90.70
2018-06-12T19:15:41.438Z,90.60
2018-06-12T19:18:10.813Z,90.10
2018-06-12T19:20:40.212Z,90.40
2018-06-12T19:23:09.601Z,90.60
2018-06-12T19:25:39.091Z,90.20
2018-06-12T19:28:09.772Z,90.70
2018-06-12T19:30:39.508Z,91.00
2018-06-12T19:33:09.125Z,90.50
2018-06-12T19:35:38.752Z,90.80
2018-06-12T19:38:08.419Z,90.30
2018-06-12T19:40:37.789Z,90.60
2018-06-12T19:43:07.177Z,90.20
2018-06-12T19:45:36.572Z,90.40
2018-06-12T19:48:06.167Z,90.30
2018-06-12T19:50:35.532Z,90.20
2018-06-12T19:53:06.283Z,90.00
2018-06-12T19:55:35.689Z,89.40
2018-06-12T19:58:06.097Z,90.00
2018-06-12T20:00:36.439Z,90.00
2018-06-12T20:03:06.868Z,89.80
2018-06-12T20:05:36.241Z,88.60
2018-06-12T20:08:07.654Z,89.20
2018-06-12T20:10:37.052Z,89.30
2018-06-12T20:13:07.375Z,89.30
2018-06-12T20:15:37.921Z,88.90
2018-06-12T20:18:07.960Z,88.90
2018-06-12T20:20:38.413Z,88.80
2018-06-12T20:23:08.671Z,88.40
2018-06-12T20:25:38.877Z,89.00
2018-06-12T20:28:08.822Z,89.40
2018-06-12T20:30:39.105Z,88.70
2018-06-12T20:33:10.599Z,89.60
2018-06-12T20:35:41.439Z,89.20
2018-06-12T20:38:12.668Z,89.70
2018-06-12T20:40:42.735Z,89.20
2018-06-12T20:43:14.256Z,89.30
2018-06-12T20:45:45.630Z,89.00
2018-06-12T20:48:15.530Z,88.20
2018-06-12T20:50:45.444Z,88.30
2018-06-12T20:53:16.098Z,86.40
2018-06-12T20:55:47.568Z,87.50
2018-06-12T20:58:17.825Z,88.40
2018-06-12T21:00:48.391Z,87.90
2018-06-12T21:03:18.058Z,88.60
2018-06-12T21:05:48.209Z,87.10
2018-06-12T21:08:18.578Z,87.90
2018-06-12T21:10:48.073Z,87.70
2018-06-12T21:13:20.574Z,86.10
2018-06-12T21:15:51.283Z,87.70
2018-06-12T21:18:22.192Z,87.60
2018-06-12T21:20:52.145Z,86.90
2018-06-12T21:23:21.546Z,88.10
2018-06-12T21:25:51.729Z,88.20
2018-06-12T21:28:22.119Z,87.00
2018-06-12T21:30:52.393Z,88.10
2018-06-12T21:33:22.080Z,88.00
2018-06-12T21:35:52.202Z,88.50
2018-06-12T21:38:21.604Z,88.30
2018-06-12T21:41:00.809Z,87.70
2018-06-12T21:43:32.625Z,87.20
2018-06-12T21:46:03.136Z,87.00
2018-06-12T21:48:33.485Z,86.80
2018-06-12T21:51:03.620Z,86.70
2018-06-12T21:53:34.509Z,86.90
2018-06-12T21:56:04.083Z,86.30
2018-06-12T21:58:33.821Z,86.70
2018-06-12T22:01:03.806Z,86.90
2018-06-12T22:03:33.943Z,86.30
2018-06-12T22:06:04.152Z,86.80
2018-06-12T22:08:34.486Z,86.90
2018-06-12T22:11:04.068Z,86.90
2018-06-12T22:13:34.525Z,86.50
2018-06-12T22:16:04.146Z,86.30
2018-06-12T22:18:34.020Z,86.30
2018-06-12T22:21:04.162Z,86.00
2018-06-12T22:23:34.789Z,86.50
2018-06-12T22:26:04.152Z,86.30
2018-06-12T22:28:33.633Z,85.70
2018-06-12T22:31:03.505Z,86.40
2018-06-12T22:33:33.657Z,86.20
2018-06-12T22:36:03.889Z,86.40
2018-06-12T22:38:33.685Z,86.30
2018-06-12T22:41:03.706Z,86.30
2018-06-12T22:43:33.770Z,86.00
2018-06-12T22:46:04.286Z,86.00
2018-06-12T22:48:34.197Z,85.60
2018-06-12T22:51:03.981Z,85.80
2018-06-12T22:53:34.545Z,85.70
2018-06-12T22:56:04.156Z,85.70
2018-06-12T22:58:34.065Z,85.80
2018-06-12T23:01:04.049Z,86.70
2018-06-12T23:03:33.428Z,86.60
2018-06-12T23:06:02.800Z,86.60
2018-06-12T23:08:32.171Z,86.70
2018-06-12T23:11:01.787Z,85.60
2018-06-12T23:13:31.557Z,85.30
2018-06-12T23:16:01.257Z,85.70
2018-06-12T23:18:30.857Z,85.90
2018-06-12T23:22:06.877Z,85.50
2018-06-12T23:24:36.505Z,85.60
2018-06-12T23:27:06.160Z,85.10
2018-06-12T23:29:35.867Z,85.30
2018-06-12T23:32:05.453Z,86.00
2018-06-12T23:34:35.055Z,84.80
2018-06-12T23:37:04.683Z,85.40
2018-06-12T23:39:34.403Z,85.10
2018-06-12T23:42:04.122Z,85.70
2018-06-12T23:44:33.892Z,85.70
2018-06-12T23:47:03.588Z,84.90
2018-06-12T23:49:33.229Z,85.00
2018-06-12T23:52:02.895Z,85.00
2018-06-12T23:54:32.659Z,85.80
2018-06-12T23:57:02.344Z,85.50
2018-06-12T23:59:31.965Z,85.50
